Time;durP1;ratioP1;P1;durP2;ratioP2;P2;SDS_P1;SDS_P2;PMS_P1;PMS_P2;Temp;Humidity;BMP_temperature;BMP_pressure;BME280_temperature;BME280_humidity;BME280_pressure;Samples;Min_cycle;Max_cycle;Signal;HPM_P1;HPM_P2
2023/12/11 00:02:23;;;;;;;;;;;;;;;;;;5031116;28;19920;-51
2023/12/11 00:04:49;;;;;;;;;;;;;;;;;;5031185;28;19935;-51
2023/12/11 00:07:15;;;;;;;;;;;;;;;;;;5031163;28;19913;-48
2023/12/11 00:09:41;;;;;;;;;;;;;;;;;;5029985;28;19915;-48
2023/12/11 00:12:07;;;;;;;;;;;;;;;;;;5032824;28;19982;-48
2023/12/11 00:14:33;;;;;;;;;;;;;;;;;;5032985;28;19916;-50
2023/12/11 00:16:59;;;;;;;;;;;;;;;;;;5032781;28;19971;-50
2023/12/11 00:19:25;;;;;;;;;;;;;;;;;;5031785;28;19909;-50
2023/12/11 00:21:51;;;;;;;;;;;;;;;;;;5033200;28;19997;-50
2023/12/11 00:24:17;;;;;;;;;;;;;;;;;;5032719;28;19909;-49
2023/12/11 00:26:43;;;;;;;;;;;;;;;;;;5032937;28;19913;-51
2023/12/11 00:29:09;;;;;;;;;;;;;;;;;;5032656;28;19924;-50
2023/12/11 00:31:35;;;;;;;;;;;;;;;;;;5032659;28;20466;-49
2023/12/11 00:34:02;;;;;;;;;;;;;;;;;;5032757;28;20040;-47
2023/12/11 00:36:28;;;;;;;;;;;;;;;;;;5031919;28;20376;-48
2023/12/11 00:38:54;;;;;;;;;;;;;;;;;;5032664;28;19917;-49
2023/12/11 00:41:20;;;;;;;;;;;;;;;;;;5031981;28;20304;-48
2023/12/11 00:43:46;;;;;;;;;;;;;;;;;;5032435;28;20012;-48
2023/12/11 00:46:12;;;;;;;;;;;;;;;;;;5032518;28;19949;-47
2023/12/11 00:48:38;;;;;;;;;;;;;;;;;;5032394;28;19915;-47
2023/12/11 00:51:04;;;;;;;;;;;;;;;;;;5031236;28;19920;-47
2023/12/11 00:53:30;;;;;;;;;;;;;;;;;;5032578;28;19910;-47
2023/12/11 00:55:56;;;;;;;;;;;;;;;;;;5031110;28;20332;-49
2023/12/11 00:58:22;;;;;;;;;;;;;;;;;;5030891;28;20278;-47
2023/12/11 01:00:48;;;;;;;;;;;;;;;;;;5032243;28;19967;-48
2023/12/11 01:03:14;;;;;;;;;;;;;;;;;;5031462;28;19910;-48
2023/12/11 01:05:41;;;;;;;;;;;;;;;;;;5031016;28;19952;-47
2023/12/11 01:08:07;;;;;;;;;;;;;;;;;;5032148;28;19909;-47
2023/12/11 01:10:33;;;;;;;;;;;;;;;;;;5030890;28;20191;-48
2023/12/11 01:13:00;;;;;;;;;;;;;;;;;;5031896;28;19913;-48
2023/12/11 01:15:26;;;;;;;;;;;;;;;;;;5030808;28;19921;-47
2023/12/11 01:17:52;;;;;;;;;;;;;;;;;;5030776;28;19940;-48
2023/12/11 01:20:18;;;;;;;;;;;;;;;;;;5032001;28;19921;-48
2023/12/11 01:22:44;;;;;;;;;;;;;;;;;;5030656;28;19913;-48
2023/12/11 01:25:10;;;;;;;;;;;;;;;;;;5032163;28;19913;-47
2023/12/11 01:27:36;;;;;;;;;;;;;;;;;;5031746;28;19936;-47
2023/12/11 01:30:02;;;;;;;;;;;;;;;;;;5014269;28;20377;-48
2023/12/11 01:32:28;;;;;;;;;;;;;;;;;;5032033;28;19952;-48
2023/12/11 01:34:54;;;;;;;;;;;;;;;;;;5032016;28;19917;-47
2023/12/11 01:37:20;;;;;;;;;;;;;;;;;;5031739;28;20011;-48
2023/12/11 01:39:46;;;;;;;;;;;;;;;;;;5032190;28;20285;-47
2023/12/11 01:42:12;;;;;;;;;;;;;;;;;;5030444;28;19909;-47
2023/12/11 01:44:38;;;;;;;;;;;;;;;;;;5030765;28;19987;-48
2023/12/11 01:47:04;;;;;;;;;;;;;;;;;;5031722;28;19915;-49
2023/12/11 01:49:30;;;;;;;;;;;;;;;;;;5032313;28;20273;-48
2023/12/11 01:51:56;;;;;;;;;;;;;;;;;;5031988;28;20429;-48
2023/12/11 01:54:22;;;;;;;;;;;;;;;;;;5035581;28;19913;-48
2023/12/11 01:56:49;;;;;;;;;;;;;;;;;;5035465;28;20008;-47
2023/12/11 01:59:15;;;;;;;;;;;;;;;;;;5034105;28;20369;-48
2023/12/11 02:01:41;;;;;;;;;;;;;;;;;;5034223;28;19932;-47
2023/12/11 02:04:08;;;;;;;;;;;;;;;;;;5034269;28;19913;-48
2023/12/11 02:06:34;;;;;;;;;;;;;;;;;;5035460;28;20012;-48
2023/12/11 02:09:00;;;;;;;;;;;;;;;;;;5035365;28;19913;-48
2023/12/11 02:11:26;;;;;;;;;;;;;;;;;;5035287;28;20377;-48
2023/12/11 02:13:52;;;;;;;;;;;;;;;;;;5017545;28;19913;-50
2023/12/11 02:16:18;;;;;;;;;;;;;;;;;;5035375;28;19929;-48
2023/12/11 02:18:45;;;;;;;;;;;;;;;;;;5035105;28;20016;-49
2023/12/11 02:21:11;;;;;;;;;;;;;;;;;;5035254;28;19909;-48
2023/12/11 02:23:37;;;;;;;;;;;;;;;;;;5035357;28;19913;-48
2023/12/11 02:26:03;;;;;;;;;;;;;;;;;;5034996;28;19984;-49
2023/12/11 02:28:29;;;;;;;;;;;;;;;;;;5033497;28;20392;-47
2023/12/11 02:30:55;;;;;;;;;;;;;;;;;;5035010;28;19916;-47
2023/12/11 02:33:21;;;;;;;;;;;;;;;;;;5033495;28;20412;-48
2023/12/11 02:35:47;;;;;;;;;;;;;;;;;;5033708;28;19915;-48
2023/12/11 02:38:13;;;;;;;;;;;;;;;;;;5034692;28;20021;-48
2023/12/11 02:40:39;;;;;;;;;;;;;;;;;;5034700;28;19916;-49
2023/12/11 02:43:05;;;;;;;;;;;;;;;;;;5034506;28;19917;-48
2023/12/11 02:45:32;;;;;;;;;;;;;;;;;;5034714;28;19909;-48
2023/12/11 02:48:02;;;;;;;;;;;;;;;;;;5033342;28;19913;-48
2023/12/11 02:50:28;;;;;;;;;;;;;;;;;;5034619;28;19921;-47
2023/12/11 02:52:54;;;;;;;;;;;;;;;;;;5034496;28;19917;-48
2023/12/11 02:55:20;;;;;;;;;;;;;;;;;;5034406;28;19913;-47
2023/12/11 02:57:46;;;;;;;;;;;;;;;;;;5016533;28;20393;-47
2023/12/11 03:00:12;;;;;;;;;;;;;;;;;;5033114;28;19913;-48
2023/12/11 03:02:38;;;;;;;;;;;;;;;;;;5034308;28;19913;-48
2023/12/11 03:05:04;;;;;;;;;;;;;;;;;;5033520;28;20005;-47
2023/12/11 03:07:30;;;;;;;;;;;;;;;;;;5017140;28;19988;-48
2023/12/11 03:09:56;;;;;;;;;;;;;;;;;;5014397;28;19917;-47
2023/12/11 03:12:22;;;;;;;;;;;;;;;;;;5014296;28;19914;-48
2023/12/11 03:14:48;;;;;;;;;;;;;;;;;;4996827;28;19976;-48
2023/12/11 03:17:14;;;;;;;;;;;;;;;;;;5014552;28;19921;-48
2023/12/11 03:19:40;;;;;;;;;;;;;;;;;;5014340;28;19921;-48
2023/12/11 03:22:07;;;;;;;;;;;;;;;;;;5014220;28;20386;-48
2023/12/11 03:24:33;;;;;;;;;;;;;;;;;;5014104;28;19936;-47
2023/12/11 03:26:59;;;;;;;;;;;;;;;;;;5012977;28;20306;-47
2023/12/11 03:29:25;;;;;;;;;;;;;;;;;;5013945;28;19917;-48
2023/12/11 03:31:51;;;;;;;;;;;;;;;;;;5012837;28;20480;-48
2023/12/11 03:34:17;;;;;;;;;;;;;;;;;;5013931;28;20298;-51
2023/12/11 03:36:43;;;;;;;;;;;;;;;;;;5013628;28;19913;-48
2023/12/11 03:39:09;;;;;;;;;;;;;;;;;;5012453;28;19964;-48
2023/12/11 03:41:35;;;;;;;;;;;;;;;;;;5012085;28;20334;-51
2023/12/11 03:44:01;;;;;;;;;;;;;;;;;;5012428;28;20371;-51
2023/12/11 03:46:27;;;;;;;;;;;;;;;;;;5012699;28;19913;-48
2023/12/11 03:48:53;;;;;;;;;;;;;;;;;;5013722;28;19913;-48
2023/12/11 03:51:20;;;;;;;;;;;;;;;;;;5012410;28;19920;-48
2023/12/11 03:53:46;;;;;;;;;;;;;;;;;;5012172;28;19968;-47
2023/12/11 03:56:12;;;;;;;;;;;;;;;;;;5013642;28;19970;-47
2023/12/11 03:58:38;;;;;;;;;;;;;;;;;;5013438;28;19922;-47
2023/12/11 04:01:04;;;;;;;;;;;;;;;;;;5012353;28;20052;-48
2023/12/11 04:03:31;;;;;;;;;;;;;;;;;;5003759;28;19914;-48
2023/12/11 04:05:57;;;;;;;;;;;;;;;;;;4997357;28;19916;-48
2023/12/11 04:08:23;;;;;;;;;;;;;;;;;;4993600;28;19914;-48
2023/12/11 04:10:49;;;;;;;;;;;;;;;;;;5002852;28;19914;-48
2023/12/11 04:13:15;;;;;;;;;;;;;;;;;;5004313;28;20402;-47
2023/12/11 04:15:41;;;;;;;;;;;;;;;;;;4998355;28;20397;-48
2023/12/11 04:18:07;;;;;;;;;;;;;;;;;;4993607;28;19991;-48
2023/12/11 04:20:33;;;;;;;;;;;;;;;;;;5006844;28;19920;-47
2023/12/11 04:22:59;;;;;;;;;;;;;;;;;;5012802;28;19913;-49
2023/12/11 04:25:25;;;;;;;;;;;;;;;;;;5003479;28;19995;-48
2023/12/11 04:27:52;;;;;;;;;;;;;;;;;;5005429;22;20382;-48
2023/12/11 04:30:18;;;;;;;;;;;;;;;;;;4975661;28;19918;-48
2023/12/11 04:32:44;;;;;;;;;;;;;;;;;;4975668;28;19944;-50
2023/12/11 04:35:10;;;;;;;;;;;;;;;;;;4975785;28;19914;-48
2023/12/11 04:37:36;;;;;;;;;;;;;;;;;;4992781;28;19929;-48
2023/12/11 04:40:03;;;;;;;;;;;;;;;;;;4993166;28;20286;-48
2023/12/11 04:42:29;;;;;;;;;;;;;;;;;;4993396;28;19913;-47
2023/12/11 04:44:55;;;;;;;;;;;;;;;;;;4975348;28;19968;-48
2023/12/11 04:47:21;;;;;;;;;;;;;;;;;;4992471;28;19920;-48
2023/12/11 04:49:47;;;;;;;;;;;;;;;;;;4992828;28;19922;-48
2023/12/11 04:52:13;;;;;;;;;;;;;;;;;;4992805;28;19913;-44
2023/12/11 04:54:39;;;;;;;;;;;;;;;;;;4992339;28;19913;-51
2023/12/11 04:57:05;;;;;;;;;;;;;;;;;;4992968;28;20051;-50
2023/12/11 04:59:31;;;;;;;;;;;;;;;;;;4992998;28;19914;-47
2023/12/11 05:01:57;;;;;;;;;;;;;;;;;;4975504;28;19921;-48
2023/12/11 05:04:23;;;;;;;;;;;;;;;;;;4992784;28;20004;-49
2023/12/11 05:06:49;;;;;;;;;;;;;;;;;;4992782;28;20273;-50
2023/12/11 05:09:15;;;;;;;;;;;;;;;;;;4975428;28;20000;-48
2023/12/11 05:11:41;;;;;;;;;;;;;;;;;;4992898;28;19976;-49
2023/12/11 05:14:07;;;;;;;;;;;;;;;;;;4992720;28;19921;-51
2023/12/11 05:16:33;;;;;;;;;;;;;;;;;;4992849;28;20017;-48
2023/12/11 05:18:59;;;;;;;;;;;;;;;;;;4992551;28;19918;-48
2023/12/11 05:21:25;;;;;;;;;;;;;;;;;;4975334;28;19914;-48
2023/12/11 05:23:53;;;;;;;;;;;;;;;;;;4990959;28;20370;-47
2023/12/11 05:26:19;;;;;;;;;;;;;;;;;;4976286;28;20440;-48
2023/12/11 05:28:45;;;;;;;;;;;;;;;;;;4995639;28;20255;-48
2023/12/11 05:31:11;;;;;;;;;;;;;;;;;;4996842;28;20016;-49
2023/12/11 05:33:37;;;;;;;;;;;;;;;;;;4996665;28;19914;-49
2023/12/11 05:36:03;;;;;;;;;;;;;;;;;;4996736;28;19913;-51
2023/12/11 05:38:29;;;;;;;;;;;;;;;;;;4996429;28;19925;-48
2023/12/11 05:40:55;;;;;;;;;;;;;;;;;;4996565;28;19921;-48
2023/12/11 05:43:21;;;;;;;;;;;;;;;;;;4996500;28;19964;-52
2023/12/11 05:45:47;;;;;;;;;;;;;;;;;;4996532;28;19914;-48
2023/12/11 05:48:14;;;;;;;;;;;;;;;;;;4996346;28;19914;-49
2023/12/11 05:50:40;;;;;;;;;;;;;;;;;;4996420;28;19983;-50
2023/12/11 05:53:06;;;;;;;;;;;;;;;;;;4996214;28;19913;-48
2023/12/11 05:55:32;;;;;;;;;;;;;;;;;;4996439;28;20008;-49
2023/12/11 05:57:58;;;;;;;;;;;;;;;;;;4996163;28;19918;-47
2023/12/11 06:00:24;;;;;;;;;;;;;;;;;;4996341;28;19922;-49
2023/12/11 06:02:50;;;;;;;;;;;;;;;;;;4995961;28;19914;-52
2023/12/11 06:05:16;;;;;;;;;;;;;;;;;;4996263;28;19914;-48
2023/12/11 06:07:42;;;;;;;;;;;;;;;;;;4996074;28;20354;-48
2023/12/11 06:10:08;;;;;;;;;;;;;;;;;;4996146;28;19913;-52
2023/12/11 06:12:34;;;;;;;;;;;;;;;;;;4995762;28;19918;-50
2023/12/11 06:15:00;;;;;;;;;;;;;;;;;;4978468;28;19956;-48
2023/12/11 06:17:26;;;;;;;;;;;;;;;;;;4995768;28;19925;-51
2023/12/11 06:19:52;;;;;;;;;;;;;;;;;;4995847;28;20298;-51
2023/12/11 06:22:18;;;;;;;;;;;;;;;;;;4995745;28;20273;-51
2023/12/11 06:24:45;;;;;;;;;;;;;;;;;;4978383;28;19954;-51
2023/12/11 06:27:11;;;;;;;;;;;;;;;;;;4995839;28;20317;-52
2023/12/11 06:29:37;;;;;;;;;;;;;;;;;;4995191;28;19917;-51
2023/12/11 06:32:03;;;;;;;;;;;;;;;;;;4995722;28;19997;-49
2023/12/11 06:34:30;;;;;;;;;;;;;;;;;;4995775;28;19913;-51
2023/12/11 06:36:56;;;;;;;;;;;;;;;;;;4995651;28;19921;-50
2023/12/11 06:39:23;;;;;;;;;;;;;;;;;;4994441;28;20306;-48
2023/12/11 06:41:49;;;;;;;;;;;;;;;;;;4995589;28;19914;-48
2023/12/11 06:44:15;;;;;;;;;;;;;;;;;;4995322;28;19918;-46
2023/12/11 06:46:41;;;;;;;;;;;;;;;;;;4995448;28;20011;-46
2023/12/11 06:49:07;;;;;;;;;;;;;;;;;;4995470;28;19973;-46
2023/12/11 06:51:34;;;;;;;;;;;;;;;;;;4995332;28;19918;-46
2023/12/11 06:54:00;;;;;;;;;;;;;;;;;;4995183;28;19921;-46
2023/12/11 06:56:27;;;;;;;;;;;;;;;;;;4995111;28;19914;-45
2023/12/11 06:58:53;;;;;;;;;;;;;;;;;;4995025;28;20305;-47
2023/12/11 07:01:19;;;;;;;;;;;;;;;;;;4995135;28;20279;-46
2023/12/11 07:03:47;;;;;;;;;;;;;;;;;;4995113;28;20321;-45
2023/12/11 07:06:13;;;;;;;;;;;;;;;;;;4995059;28;20325;-48
2023/12/11 07:08:39;;;;;;;;;;;;;;;;;;4995070;28;19953;-47
2023/12/11 07:11:05;;;;;;;;;;;;;;;;;;4994918;28;19917;-49
2023/12/11 07:13:31;;;;;;;;;;;;;;;;;;4994820;28;20020;-48
2023/12/11 07:15:57;;;;;;;;;;;;;;;;;;4994872;28;19914;-47
2023/12/11 07:18:23;;;;;;;;;;;;;;;;;;4994786;28;20072;-47
2023/12/11 07:20:49;;;;;;;;;;;;;;;;;;4977310;28;19972;-47
2023/12/11 07:23:15;;;;;;;;;;;;;;;;;;4994667;28;19921;-46
2023/12/11 07:25:41;;;;;;;;;;;;;;;;;;4977610;28;19914;-47
2023/12/11 07:28:08;;;;;;;;;;;;;;;;;;4994358;28;20016;-47
2023/12/11 07:30:34;;;;;;;;;;;;;;;;;;4994572;28;19913;-47
2023/12/11 07:33:00;;;;;;;;;;;;;;;;;;4994419;28;19921;-48
2023/12/11 07:35:26;;;;;;;;;;;;;;;;;;4994562;28;19914;-47
2023/12/11 07:37:52;;;;;;;;;;;;;;;;;;4994327;28;19918;-47
2023/12/11 07:40:18;;;;;;;;;;;;;;;;;;4994485;28;19960;-47
2023/12/11 07:42:44;;;;;;;;;;;;;;;;;;4976746;28;20368;-48
2023/12/11 07:45:10;;;;;;;;;;;;;;;;;;4994382;28;19922;-46
2023/12/11 07:47:36;;;;;;;;;;;;;;;;;;4994440;28;20031;-48
2023/12/11 07:50:02;;;;;;;;;;;;;;;;;;4993839;28;19914;-47
2023/12/11 07:52:29;;;;;;;;;;;;;;;;;;4994030;28;20412;-47
2023/12/11 07:54:55;;;;;;;;;;;;;;;;;;4976872;28;19914;-47
2023/12/11 07:57:21;;;;;;;;;;;;;;;;;;4993795;28;19968;-48
2023/12/11 07:59:47;;;;;;;;;;;;;;;;;;4993967;28;19914;-48
2023/12/11 08:02:13;;;;;;;;;;;;;;;;;;4993829;28;19960;-48
2023/12/11 08:04:40;;;;;;;;;;;;;;;;;;4993927;28;20386;-48
2023/12/11 08:07:06;;;;;;;;;;;;;;;;;;4993858;28;19914;-48
2023/12/11 08:09:32;;;;;;;;;;;;;;;;;;4976465;28;19917;-47
2023/12/11 08:11:58;;;;;;;;;;;;;;;;;;4993885;28;19918;-49
2023/12/11 08:14:24;;;;;;;;;;;;;;;;;;4993679;28;19920;-47
2023/12/11 08:16:50;;;;;;;;;;;;;;;;;;4993795;28;20445;-47
2023/12/11 08:19:16;;;;;;;;;;;;;;;;;;4993552;28;20444;-48
2023/12/11 08:21:42;;;;;;;;;;;;;;;;;;4993743;28;20387;-47
2023/12/11 08:24:08;;;;;;;;;;;;;;;;;;4993541;28;19968;-47
2023/12/11 08:26:34;;;;;;;;;;;;;;;;;;4993366;28;19920;-47
2023/12/11 08:29:00;;;;;;;;;;;;;;;;;;4993314;28;19928;-47
2023/12/11 08:31:26;;;;;;;;;;;;;;;;;;4976182;28;20386;-47
2023/12/11 08:33:53;;;;;;;;;;;;;;;;;;4993434;28;19913;-48
2023/12/11 08:36:19;;;;;;;;;;;;;;;;;;4993803;28;20321;-48
2023/12/11 08:38:45;;;;;;;;;;;;;;;;;;4993603;28;20050;-48
2023/12/11 08:41:11;;;;;;;;;;;;;;;;;;4993151;28;19914;-47
2023/12/11 08:43:37;;;;;;;;;;;;;;;;;;4975639;28;19920;-47
2023/12/11 08:46:03;;;;;;;;;;;;;;;;;;4993362;28;20053;-47
2023/12/11 08:48:29;;;;;;;;;;;;;;;;;;4975775;28;19981;-47
2023/12/11 08:50:55;;;;;;;;;;;;;;;;;;4993239;28;20020;-48
2023/12/11 08:53:21;;;;;;;;;;;;;;;;;;4993103;28;19914;-50
2023/12/11 08:55:47;;;;;;;;;;;;;;;;;;4993072;28;20297;-48
2023/12/11 08:58:14;;;;;;;;;;;;;;;;;;4992984;28;20371;-47
2023/12/11 09:00:40;;;;;;;;;;;;;;;;;;4993124;28;19953;-51
2023/12/11 09:03:06;;;;;;;;;;;;;;;;;;4992265;28;19917;-50
2023/12/11 09:05:32;;;;;;;;;;;;;;;;;;4993068;28;20387;-50
2023/12/11 09:07:58;;;;;;;;;;;;;;;;;;4992934;28;19913;-50
2023/12/11 09:10:24;;;;;;;;;;;;;;;;;;4992853;28;19949;-49
2023/12/11 09:12:51;;;;;;;;;;;;;;;;;;4992664;28;20413;-50
2023/12/11 09:15:17;;;;;;;;;;;;;;;;;;4992627;28;19920;-48
2023/12/11 09:17:43;;;;;;;;;;;;;;;;;;4974281;28;19960;-50
2023/12/11 09:20:10;;;;;;;;;;;;;;;;;;4992854;28;19969;-47
2023/12/11 09:22:36;;;;;;;;;;;;;;;;;;4992751;28;19913;-48
2023/12/11 09:25:02;;;;;;;;;;;;;;;;;;4992882;28;19976;-48
2023/12/11 09:27:28;;;;;;;;;;;;;;;;;;4992764;28;19921;-48
2023/12/11 09:29:54;;;;;;;;;;;;;;;;;;4991901;28;20061;-50
2023/12/11 09:32:20;;;;;;;;;;;;;;;;;;4992073;28;20226;-48
2023/12/11 09:34:46;;;;;;;;;;;;;;;;;;4974867;28;19964;-48
2023/12/11 09:37:12;;;;;;;;;;;;;;;;;;4974738;28;19914;-47
2023/12/11 09:39:38;;;;;;;;;;;;;;;;;;4992454;28;19921;-48
2023/12/11 09:42:05;;;;;;;;;;;;;;;;;;4992678;28;20175;-48
2023/12/11 09:44:31;;;;;;;;;;;;;;;;;;4992422;28;19921;-47
2023/12/11 09:46:57;;;;;;;;;;;;;;;;;;4992532;28;20433;-49
2023/12/11 09:49:24;;;;;;;;;;;;;;;;;;4975155;28;19925;-47
2023/12/11 09:51:51;;;;;;;;;;;;;;;;;;4992507;28;19914;-47
2023/12/11 09:54:17;;;;;;;;;;;;;;;;;;4992194;28;19965;-48
2023/12/11 09:56:43;;;;;;;;;;;;;;;;;;4992511;28;19969;-50
2023/12/11 09:59:10;;;;;;;;;;;;;;;;;;4992280;28;19925;-47
2023/12/11 10:01:36;;;;;;;;;;;;;;;;;;4992371;28;19914;-47
2023/12/11 10:04:02;;;;;;;;;;;;;;;;;;4974886;28;19913;-47
2023/12/11 10:06:28;;;;;;;;;;;;;;;;;;4992411;28;19956;-47
2023/12/11 10:08:55;;;;;;;;;;;;;;;;;;4992156;28;19985;-47
2023/12/11 10:11:22;;;;;;;;;;;;;;;;;;4974901;28;20267;-48
2023/12/11 10:13:48;;;;;;;;;;;;;;;;;;4993657;28;20442;-47
2023/12/11 10:16:14;;;;;;;;;;;;;;;;;;4995989;28;20295;-47
2023/12/11 10:18:40;;;;;;;;;;;;;;;;;;4995860;28;20361;-48
2023/12/11 10:21:06;;;;;;;;;;;;;;;;;;4995836;28;19917;-47
2023/12/11 10:23:32;;;;;;;;;;;;;;;;;;4962035;28;20004;-49
2023/12/11 10:25:58;;;;;;;;;;;;;;;;;;4978306;28;19921;-47
2023/12/11 10:28:25;;;;;;;;;;;;;;;;;;5028198;23;19925;-47
2023/12/11 10:30:51;;;;;;;;;;;;;;;;;;5034826;28;19971;-50
2023/12/11 10:33:18;;;;;;;;;;;;;;;;;;5034866;28;19913;-47
2023/12/11 10:35:44;;;;;;;;;;;;;;;;;;5034882;28;20405;-47
2023/12/11 10:38:10;;;;;;;;;;;;;;;;;;5034826;28;19917;-47
2023/12/11 10:40:37;;;;;;;;;;;;;;;;;;5035126;28;19917;-47
2023/12/11 10:43:03;;;;;;;;;;;;;;;;;;5033486;28;19971;-47
2023/12/11 10:45:29;;;;;;;;;;;;;;;;;;5033483;28;19913;-47
2023/12/11 10:47:55;;;;;;;;;;;;;;;;;;5034726;28;20000;-47
2023/12/11 10:50:21;;;;;;;;;;;;;;;;;;5034544;28;19967;-47
2023/12/11 10:52:47;;;;;;;;;;;;;;;;;;5033273;28;19913;-48
2023/12/11 10:55:13;;;;;;;;;;;;;;;;;;5033539;28;19999;-47
2023/12/11 10:57:39;;;;;;;;;;;;;;;;;;5034556;28;19917;-47
2023/12/11 11:00:05;;;;;;;;;;;;;;;;;;5034419;28;19913;-47
2023/12/11 11:02:31;;;;;;;;;;;;;;;;;;5033175;28;19913;-47
2023/12/11 11:04:59;;;;;;;;;;;;;;;;;;5033208;28;19924;-47
2023/12/11 11:07:25;;;;;;;;;;;;;;;;;;5034453;28;19913;-47
2023/12/11 11:09:51;;;;;;;;;;;;;;;;;;5034478;28;20003;-47
2023/12/11 11:12:17;;;;;;;;;;;;;;;;;;5033077;28;19920;-47
2023/12/11 11:14:43;;;;;;;;;;;;;;;;;;5034627;28;19913;-47
2023/12/11 11:17:10;;;;;;;;;;;;;;;;;;5033374;28;19913;-47
2023/12/11 11:19:36;;;;;;;;;;;;;;;;;;5033551;28;20288;-48
2023/12/11 11:22:09;;;;;;;;;;;;;;;;;;5033631;28;19920;-48
2023/12/11 11:24:35;;;;;;;;;;;;;;;;;;5033024;28;20406;-48
2023/12/11 11:27:01;;;;;;;;;;;;;;;;;;5033664;28;19909;-47
2023/12/11 11:29:27;;;;;;;;;;;;;;;;;;5022533;28;19971;-47
2023/12/11 11:31:54;;;;;;;;;;;;;;;;;;5012870;28;19909;-48
2023/12/11 11:34:20;;;;;;;;;;;;;;;;;;5012701;28;19917;-46
2023/12/11 11:36:49;;;;;;;;;;;;;;;;;;5012942;28;20329;-47
2023/12/11 11:39:15;;;;;;;;;;;;;;;;;;5024210;28;20430;-46
2023/12/11 11:41:41;;;;;;;;;;;;;;;;;;5017449;28;20380;-47
2023/12/11 11:44:07;;;;;;;;;;;;;;;;;;5027804;28;19964;-47
2023/12/11 11:46:33;;;;;;;;;;;;;;;;;;5022271;28;19968;-47
2023/12/11 11:49:00;;;;;;;;;;;;;;;;;;5028179;28;19957;-50
2023/12/11 11:51:26;;;;;;;;;;;;;;;;;;5031261;28;19932;-48
2023/12/11 11:53:52;;;;;;;;;;;;;;;;;;5020292;28;20063;-47
2023/12/11 11:56:18;;;;;;;;;;;;;;;;;;5013079;28;19917;-48
2023/12/11 11:58:44;;;;;;;;;;;;;;;;;;5028194;28;20336;-48
2023/12/11 12:01:11;;;;;;;;;;;;;;;;;;5021113;28;20339;-44
2023/12/11 12:03:37;;;;;;;;;;;;;;;;;;5013236;28;19972;-48
2023/12/11 12:06:03;;;;;;;;;;;;;;;;;;5017160;28;19972;-47
2023/12/11 12:08:29;;;;;;;;;;;;;;;;;;5025240;28;19924;-47
2023/12/11 12:10:56;;;;;;;;;;;;;;;;;;5030623;28;19967;-47
2023/12/11 12:13:22;;;;;;;;;;;;;;;;;;5017911;28;20374;-47
2023/12/11 12:15:51;;;;;;;;;;;;;;;;;;5021148;28;20439;-47
2023/12/11 12:18:18;;;;;;;;;;;;;;;;;;5011675;28;20356;-48
2023/12/11 12:20:44;;;;;;;;;;;;;;;;;;5019792;28;20400;-47
2023/12/11 12:23:10;;;;;;;;;;;;;;;;;;5011676;28;20384;-49
2023/12/11 12:25:36;;;;;;;;;;;;;;;;;;5002921;28;19914;-47
2023/12/11 12:28:02;;;;;;;;;;;;;;;;;;5013584;28;19913;-47
2023/12/11 12:30:28;;;;;;;;;;;;;;;;;;5029733;28;19921;-50
2023/12/11 12:32:54;;;;;;;;;;;;;;;;;;5029685;28;20415;-49
2023/12/11 12:35:20;;;;;;;;;;;;;;;;;;5015916;28;20024;-47
2023/12/11 12:37:47;;;;;;;;;;;;;;;;;;5022616;28;20604;-47
2023/12/11 12:40:13;;;;;;;;;;;;;;;;;;5031210;28;20297;-49
2023/12/11 12:42:40;;;;;;;;;;;;;;;;;;5030652;28;19924;-48
2023/12/11 12:45:06;;;;;;;;;;;;;;;;;;5012376;28;19917;-48
2023/12/11 12:47:32;;;;;;;;;;;;;;;;;;5023051;28;20431;-49
2023/12/11 12:49:58;;;;;;;;;;;;;;;;;;5020242;28;19987;-50
2023/12/11 12:52:25;;;;;;;;;;;;;;;;;;5017933;28;19917;-49
2023/12/11 12:54:51;;;;;;;;;;;;;;;;;;5027842;28;19916;-47
2023/12/11 12:57:19;;;;;;;;;;;;;;;;;;5030714;28;19921;-47
2023/12/11 12:59:45;;;;;;;;;;;;;;;;;;5027944;28;19913;-47
2023/12/11 13:02:11;;;;;;;;;;;;;;;;;;5018926;28;19913;-47
2023/12/11 13:04:37;;;;;;;;;;;;;;;;;;5012387;28;19945;-49
2023/12/11 13:07:03;;;;;;;;;;;;;;;;;;5014270;28;20301;-46
2023/12/11 13:09:29;;;;;;;;;;;;;;;;;;5022690;28;19917;-46
2023/12/11 13:11:55;;;;;;;;;;;;;;;;;;5029014;28;19921;-48
2023/12/11 13:14:23;;;;;;;;;;;;;;;;;;5023923;28;19913;-47
2023/12/11 13:16:49;;;;;;;;;;;;;;;;;;5014907;28;20287;-47
2023/12/11 13:19:15;;;;;;;;;;;;;;;;;;5026090;28;19921;-47
2023/12/11 13:21:42;;;;;;;;;;;;;;;;;;5009721;28;19917;-48
2023/12/11 13:24:08;;;;;;;;;;;;;;;;;;5017770;28;20003;-47
2023/12/11 13:26:34;;;;;;;;;;;;;;;;;;5030384;28;20003;-49
2023/12/11 13:29:00;;;;;;;;;;;;;;;;;;5030429;28;19929;-47
2023/12/11 13:31:26;;;;;;;;;;;;;;;;;;5030532;28;19917;-47
2023/12/11 13:33:52;;;;;;;;;;;;;;;;;;5025980;28;19913;-47
2023/12/11 13:36:18;;;;;;;;;;;;;;;;;;5015143;28;19921;-48
2023/12/11 13:38:44;;;;;;;;;;;;;;;;;;5010562;28;20401;-47
2023/12/11 13:41:10;;;;;;;;;;;;;;;;;;5010492;28;19918;-49
2023/12/11 13:43:37;;;;;;;;;;;;;;;;;;5019947;28;20325;-47
2023/12/11 13:46:03;;;;;;;;;;;;;;;;;;5020786;28;19925;-49
2023/12/11 13:48:29;;;;;;;;;;;;;;;;;;5026337;28;19913;-50
2023/12/11 13:50:55;;;;;;;;;;;;;;;;;;5023354;28;19964;-49
2023/12/11 13:53:21;;;;;;;;;;;;;;;;;;5026588;28;19924;-50
2023/12/11 13:55:47;;;;;;;;;;;;;;;;;;5034097;28;20403;-49
2023/12/11 13:58:13;;;;;;;;;;;;;;;;;;5023372;28;20465;-49
2023/12/11 14:00:39;;;;;;;;;;;;;;;;;;5017763;28;19917;-49
2023/12/11 14:03:05;;;;;;;;;;;;;;;;;;5022625;28;20381;-48
2023/12/11 14:05:32;;;;;;;;;;;;;;;;;;5029889;28;20703;-48
2023/12/11 14:07:59;;;;;;;;;;;;;;;;;;5016581;28;19960;-50
2023/12/11 14:10:25;;;;;;;;;;;;;;;;;;5013292;28;19913;-47
2023/12/11 14:12:51;;;;;;;;;;;;;;;;;;5014076;28;19963;-47
2023/12/11 14:15:20;;;;;;;;;;;;;;;;;;5013300;28;20266;-47
2023/12/11 14:17:46;;;;;;;;;;;;;;;;;;5013852;28;20409;-48
2023/12/11 14:20:12;;;;;;;;;;;;;;;;;;5013976;28;19925;-48
2023/12/11 14:22:39;;;;;;;;;;;;;;;;;;5013679;28;20365;-46
2023/12/11 14:25:06;;;;;;;;;;;;;;;;;;5013818;28;19914;-50
2023/12/11 14:27:32;;;;;;;;;;;;;;;;;;5014063;28;19913;-51
2023/12/11 14:29:58;;;;;;;;;;;;;;;;;;5013688;28;19917;-43
2023/12/11 14:32:24;;;;;;;;;;;;;;;;;;5012325;28;19972;-51
2023/12/11 14:34:50;;;;;;;;;;;;;;;;;;5013821;28;19913;-49
2023/12/11 14:37:16;;;;;;;;;;;;;;;;;;5012175;28;20310;-48
2023/12/11 14:39:42;;;;;;;;;;;;;;;;;;5013872;28;19921;-47
2023/12/11 14:42:08;;;;;;;;;;;;;;;;;;5023644;28;19921;-49
2023/12/11 14:44:34;;;;;;;;;;;;;;;;;;5013543;28;19921;-50
2023/12/11 14:47:00;;;;;;;;;;;;;;;;;;5023940;28;19909;-47
2023/12/11 14:49:26;;;;;;;;;;;;;;;;;;5031451;28;19917;-47
2023/12/11 14:51:52;;;;;;;;;;;;;;;;;;5028992;28;20384;-48
2023/12/11 14:54:19;;;;;;;;;;;;;;;;;;5020064;28;19917;-49
2023/12/11 14:56:45;;;;;;;;;;;;;;;;;;5018291;28;19914;-48
2023/12/11 14:59:12;;;;;;;;;;;;;;;;;;5023123;28;19921;-47
2023/12/11 15:01:38;;;;;;;;;;;;;;;;;;5021112;28;19914;-49
2023/12/11 15:04:05;;;;;;;;;;;;;;;;;;5016358;28;20060;-49
2023/12/11 15:06:31;;;;;;;;;;;;;;;;;;5014649;28;19917;-48
2023/12/11 15:09:00;;;;;;;;;;;;;;;;;;5018871;28;20435;-48
2023/12/11 15:11:27;;;;;;;;;;;;;;;;;;5023395;28;19920;-50
2023/12/11 15:13:53;;;;;;;;;;;;;;;;;;5031181;28;19924;-50
2023/12/11 15:16:21;;;;;;;;;;;;;;;;;;5032286;28;19923;-54
2023/12/11 15:18:48;;;;;;;;;;;;;;;;;;5021305;28;20032;-51
2023/12/11 15:21:14;;;;;;;;;;;;;;;;;;5026470;28;19917;-49
2023/12/11 15:23:40;;;;;;;;;;;;;;;;;;5021591;28;19941;-50
2023/12/11 15:26:06;;;;;;;;;;;;;;;;;;5023263;28;20305;-48
2023/12/11 15:28:32;;;;;;;;;;;;;;;;;;5013722;28;19922;-48
2023/12/11 15:30:58;;;;;;;;;;;;;;;;;;5018557;28;19917;-50
2023/12/11 15:33:24;;;;;;;;;;;;;;;;;;5014179;28;19924;-48
2023/12/11 15:35:50;;;;;;;;;;;;;;;;;;5025397;28;19917;-48
2023/12/11 15:38:16;;;;;;;;;;;;;;;;;;5028881;28;20486;-48
2023/12/11 15:40:42;;;;;;;;;;;;;;;;;;5018992;28;19925;-48
2023/12/11 15:43:09;;;;;;;;;;;;;;;;;;5014644;28;20012;-50
2023/12/11 15:45:35;;;;;;;;;;;;;;;;;;5014874;28;19917;-48
2023/12/11 15:48:01;;;;;;;;;;;;;;;;;;5013520;28;19975;-49
2023/12/11 15:50:28;;;;;;;;;;;;;;;;;;5025634;28;19914;-49
2023/12/11 15:52:54;;;;;;;;;;;;;;;;;;5013301;28;19936;-50
2023/12/11 15:55:20;;;;;;;;;;;;;;;;;;5027861;28;19920;-52
2023/12/11 15:57:46;;;;;;;;;;;;;;;;;;5030247;28;19917;-49
2023/12/11 16:00:12;;;;;;;;;;;;;;;;;;5018785;28;19920;-49
2023/12/11 16:02:41;;;;;;;;;;;;;;;;;;5012124;28;20333;-51
2023/12/11 16:05:07;;;;;;;;;;;;;;;;;;5027972;28;19918;-50
2023/12/11 16:07:33;;;;;;;;;;;;;;;;;;5018735;28;20531;-50
2023/12/11 16:09:59;;;;;;;;;;;;;;;;;;5014096;28;19921;-49
2023/12/11 16:12:25;;;;;;;;;;;;;;;;;;5012557;28;20394;-49
2023/12/11 16:14:51;;;;;;;;;;;;;;;;;;5023075;28;20396;-48
2023/12/11 16:17:18;;;;;;;;;;;;;;;;;;5012966;28;19959;-49
2023/12/11 16:19:44;;;;;;;;;;;;;;;;;;5018833;28;19964;-51
2023/12/11 16:22:10;;;;;;;;;;;;;;;;;;5025936;28;19912;-49
2023/12/11 16:24:36;;;;;;;;;;;;;;;;;;5028189;28;20321;-52
2023/12/11 16:27:03;;;;;;;;;;;;;;;;;;5030016;28;20005;-52
2023/12/11 16:29:29;;;;;;;;;;;;;;;;;;5034846;23;19979;-48
2023/12/11 16:31:56;;;;;;;;;;;;;;;;;;5023208;28;20293;-48
2023/12/11 16:34:22;;;;;;;;;;;;;;;;;;5024283;28;19917;-48
2023/12/11 16:36:49;;;;;;;;;;;;;;;;;;5019688;28;19916;-48
2023/12/11 16:39:15;;;;;;;;;;;;;;;;;;5013831;28;19972;-48